Time;durP1;ratioP1;P1;durP2;ratioP2;P2;SDS_P1;SDS_P2;PMS_P1;PMS_P2;Temp;Humidity;BMP_temperature;BMP_pressure;BME280_temperature;BME280_humidity;BME280_pressure;Samples;Min_cycle;Max_cycle;Signal;HPM_P1;HPM_P2
2024/01/31 00:01:46;;;;;;;59.13;27.57;;;-4.50;99.90;;;;;;4228880;28;20248;-61
2024/01/31 00:03:47;;;;;;;57.20;26.23;;;-4.50;99.90;;;;;;4228884;28;20264;-61
2024/01/31 00:05:49;;;;;;;58.67;25.10;;;-4.50;99.90;;;;;;4228702;28;20699;-60
2024/01/31 00:07:50;;;;;;;53.90;24.70;;;-4.60;99.90;;;;;;4228149;28;20325;-59
2024/01/31 00:09:51;;;;;;;58.33;26.20;;;-4.60;99.90;;;;;;4228965;28;20257;-60
2024/01/31 00:11:52;;;;;;;56.90;27.30;;;-4.50;99.90;;;;;;4228127;28;20257;-59
2024/01/31 00:13:53;;;;;;;57.53;25.93;;;-4.60;99.90;;;;;;4229413;28;20256;-61
2024/01/31 00:15:55;;;;;;;69.63;29.73;;;-4.60;99.90;;;;;;4228120;27;20654;-61
2024/01/31 00:17:56;;;;;;;71.70;31.58;;;-4.60;99.90;;;;;;4229278;27;20613;-60
2024/01/31 00:19:57;;;;;;;64.93;28.93;;;-4.70;99.90;;;;;;4228548;28;20036;-61
2024/01/31 00:21:59;;;;;;;72.17;29.93;;;-4.70;99.90;;;;;;4228772;28;20732;-61
2024/01/31 00:24:00;;;;;;;69.13;30.20;;;-4.80;99.90;;;;;;4227723;28;20782;-61
2024/01/31 00:26:01;;;;;;;64.88;28.50;;;-4.80;99.90;;;;;;4229262;28;20256;-59
2024/01/31 00:28:03;;;;;;;64.90;28.02;;;-4.80;99.90;;;;;;4227693;28;20044;-59
2024/01/31 00:30:04;;;;;;;71.07;29.08;;;-4.90;99.90;;;;;;4229434;27;20120;-61
2024/01/31 00:32:06;;;;;;;66.93;29.17;;;-4.90;99.90;;;;;;4228204;28;20031;-61
2024/01/31 00:34:07;;;;;;;64.83;28.67;;;-4.90;99.90;;;;;;4228534;28;20268;-62
2024/01/31 00:36:08;;;;;;;63.95;29.33;;;-5.00;99.90;;;;;;4228223;28;20689;-61
2024/01/31 00:38:10;;;;;;;65.85;29.83;;;-5.00;99.90;;;;;;4228132;28;20088;-59
2024/01/31 00:40:11;;;;;;;60.13;28.67;;;-4.90;99.90;;;;;;4228906;27;20104;-60
2024/01/31 00:42:12;;;;;;;56.92;27.33;;;-5.00;99.90;;;;;;4226282;28;20264;-61
2024/01/31 00:44:14;;;;;;;57.05;26.58;;;-5.00;99.90;;;;;;4228571;28;20084;-61
2024/01/31 00:46:15;;;;;;;55.40;25.20;;;-5.00;99.90;;;;;;4227790;28;20069;-60
2024/01/31 00:48:16;;;;;;;53.08;24.58;;;-5.10;99.90;;;;;;4228889;28;20043;-60
2024/01/31 00:50:17;;;;;;;53.38;23.50;;;-5.10;99.90;;;;;;4228097;28;20084;-61
2024/01/31 00:52:18;;;;;;;45.50;20.58;;;-5.10;99.90;;;;;;4229218;27;20100;-61
2024/01/31 00:54:20;;;;;;;47.25;21.35;;;-5.20;99.90;;;;;;4227833;27;20096;-61
2024/01/31 00:56:21;;;;;;;42.65;20.65;;;-5.20;99.90;;;;;;4228514;28;20027;-61
2024/01/31 00:58:22;;;;;;;45.58;20.75;;;-5.20;99.90;;;;;;4227491;27;20039;-61
2024/01/31 01:00:25;;;;;;;53.33;22.00;;;-5.30;99.90;;;;;;4228907;28;20089;-61
2024/01/31 01:02:27;;;;;;;51.72;22.45;;;-5.30;99.90;;;;;;4227667;28;20039;-60
2024/01/31 01:04:28;;;;;;;52.10;22.65;;;-5.40;99.90;;;;;;4228068;28;20020;-60
2024/01/31 01:06:29;;;;;;;45.38;21.40;;;-5.40;99.90;;;;;;4227860;28;20039;-61
2024/01/31 01:08:30;;;;;;;49.45;20.88;;;-5.40;99.90;;;;;;4227811;28;20031;-59
2024/01/31 01:10:31;;;;;;;52.58;23.80;;;-5.40;99.90;;;;;;4228091;28;20421;-60
2024/01/31 01:12:32;;;;;;;58.72;25.83;;;-5.40;99.90;;;;;;4227714;28;20476;-58
2024/01/31 01:14:33;;;;;;;65.60;28.55;;;-5.40;99.90;;;;;;4228558;28;20536;-62
2024/01/31 01:16:34;;;;;;;60.83;29.02;;;-5.40;99.90;;;;;;4227266;27;20028;-58
2024/01/31 01:18:36;;;;;;;64.15;26.35;;;-5.40;99.90;;;;;;4228546;28;20031;-59
2024/01/31 01:20:37;;;;;;;56.92;25.52;;;-5.40;99.90;;;;;;4227971;28;20036;-60
2024/01/31 01:22:38;;;;;;;61.00;26.25;;;-5.40;99.90;;;;;;4227901;27;20055;-60
2024/01/31 01:24:39;;;;;;;51.20;24.85;;;-5.30;99.90;;;;;;4215914;28;20105;-61
2024/01/31 01:26:41;;;;;;;55.72;26.23;;;-5.30;99.90;;;;;;4228155;28;20528;-60
2024/01/31 01:28:43;;;;;;;58.85;26.40;;;-5.30;99.90;;;;;;4227251;27;20624;-60
2024/01/31 01:30:44;;;;;;;59.80;26.20;;;-5.30;99.90;;;;;;4228258;28;20031;-61
2024/01/31 01:32:45;;;;;;;55.47;25.45;;;-5.40;99.90;;;;;;4226623;28;20024;-62
2024/01/31 01:34:48;;;;;;;52.20;24.48;;;-5.40;99.90;;;;;;4228074;28;20100;-62
2024/01/31 01:36:49;;;;;;;53.35;24.00;;;-5.30;99.90;;;;;;4226563;28;20084;-62
2024/01/31 01:38:50;;;;;;;55.70;26.13;;;-5.30;99.90;;;;;;4227967;28;20058;-62
2024/01/31 01:40:52;;;;;;;64.00;26.98;;;-5.20;99.90;;;;;;4227583;28;20287;-59
2024/01/31 01:42:53;;;;;;;60.50;28.30;;;-5.30;99.90;;;;;;4227390;28;20016;-61
2024/01/31 01:44:54;;;;;;;59.13;27.30;;;-5.30;99.90;;;;;;4227653;28;20093;-61
2024/01/31 01:46:55;;;;;;;59.97;26.17;;;-5.30;99.90;;;;;;4226935;28;20031;-60
2024/01/31 01:48:56;;;;;;;51.25;24.92;;;-5.40;99.90;;;;;;4228089;28;20040;-61
2024/01/31 01:50:58;;;;;;;55.55;25.27;;;-5.40;99.90;;;;;;4226556;28;20429;-59
2024/01/31 01:52:59;;;;;;;49.33;22.73;;;-5.40;99.90;;;;;;4228738;28;20130;-61
2024/01/31 01:55:03;;;;;;;47.20;22.00;;;-5.50;99.90;;;;;;4230386;27;20036;-61
2024/01/31 01:57:05;;;;;;;41.20;18.55;;;-5.50;99.90;;;;;;4231299;28;20028;-61
2024/01/31 01:59:07;;;;;;;45.33;20.00;;;-5.50;99.90;;;;;;4230587;28;20035;-60
2024/01/31 02:01:10;;;;;;;42.63;20.35;;;-5.60;99.90;;;;;;4231506;27;20483;-58
2024/01/31 02:03:15;;;;;;;48.80;21.70;;;-5.50;99.90;;;;;;4230275;28;20016;-57
2024/01/31 02:05:16;;;;;;;45.88;22.92;;;-5.60;99.90;;;;;;4231422;28;20096;-61
2024/01/31 02:07:25;;;;;;;45.90;22.70;;;-5.50;99.90;;;;;;4230450;28;20892;-61
2024/01/31 02:09:28;;;;;;;57.20;22.02;;;-5.50;99.90;;;;;;4231610;28;20051;-60
2024/01/31 02:11:31;;;;;;;52.45;22.90;;;-5.50;99.90;;;;;;4230009;27;20035;-60
2024/01/31 02:13:32;;;;;;;50.65;23.85;;;-5.40;99.90;;;;;;4230826;27;20032;-62
2024/01/31 02:15:33;;;;;;;49.03;20.63;;;-5.40;99.90;;;;;;4230310;28;20020;-59
2024/01/31 02:17:35;;;;;;;54.58;22.80;;;-5.40;99.90;;;;;;4230801;28;20020;-61
2024/01/31 02:19:36;;;;;;;45.00;21.67;;;-5.40;99.90;;;;;;4230630;28;20446;-61
2024/01/31 02:21:41;;;;;;;51.38;22.38;;;-5.50;99.90;;;;;;4230566;28;20456;-60
2024/01/31 02:23:42;;;;;;;44.90;21.65;;;-5.50;99.90;;;;;;4230181;27;20469;-60
2024/01/31 02:25:45;;;;;;;50.85;23.70;;;-5.60;99.90;;;;;;4230297;27;20032;-61
2024/01/31 02:27:46;;;;;;;50.60;25.27;;;-5.60;99.90;;;;;;4230363;28;20081;-58
2024/01/31 02:29:47;;;;;;;50.53;24.95;;;-5.70;99.90;;;;;;4230182;27;20056;-60
2024/01/31 02:31:48;;;;;;;60.08;28.05;;;-5.70;99.90;;;;;;4231009;28;20039;-60
2024/01/31 02:33:49;;;;;;;60.75;28.83;;;-5.70;99.90;;;;;;4229996;27;20031;-56
2024/01/31 02:35:50;;;;;;;58.58;28.35;;;-5.70;99.90;;;;;;4230588;27;20785;-61
2024/01/31 02:37:52;;;;;;;56.63;28.50;;;-5.70;99.90;;;;;;4229905;28;20807;-61
2024/01/31 02:39:53;;;;;;;56.33;25.90;;;-5.70;99.90;;;;;;4231031;28;20092;-61
2024/01/31 02:41:55;;;;;;;65.38;27.58;;;-5.60;99.90;;;;;;4229786;27;20040;-61
2024/01/31 02:43:57;;;;;;;56.65;28.80;;;-5.60;99.90;;;;;;4230609;28;20039;-60
2024/01/31 02:45:58;;;;;;;57.75;27.52;;;-5.60;99.90;;;;;;4230095;28;20045;-60
2024/01/31 02:47:59;;;;;;;61.05;25.90;;;-5.60;99.90;;;;;;4230263;27;20043;-61
2024/01/31 02:50:00;;;;;;;56.75;23.55;;;-5.60;99.90;;;;;;4229837;28;20040;-60
2024/01/31 02:52:02;;;;;;;53.45;22.98;;;-5.60;99.90;;;;;;4229698;28;20085;-61
2024/01/31 02:54:03;;;;;;;50.90;22.52;;;-5.70;99.90;;;;;;4230116;28;20080;-59
2024/01/31 02:56:06;;;;;;;46.10;21.15;;;-5.80;99.90;;;;;;4229649;28;20422;-61
2024/01/31 02:58:07;;;;;;;49.75;22.08;;;-5.90;99.90;;;;;;4230526;28;20036;-60
2024/01/31 03:00:11;;;;;;;44.33;21.10;;;-6.00;99.90;;;;;;4229542;27;20035;-60
2024/01/31 03:02:17;;;;;;;44.30;21.42;;;-6.10;99.90;;;;;;4230434;27;20120;-60
2024/01/31 03:04:18;;;;;;;40.00;18.42;;;-6.20;99.90;;;;;;4228092;28;20020;-60
2024/01/31 03:06:19;;;;;;;37.83;17.52;;;-6.20;99.90;;;;;;4228913;28;20024;-61
2024/01/31 03:08:20;;;;;;;41.97;18.23;;;-6.30;99.90;;;;;;4229807;28;20829;-61
2024/01/31 03:10:21;;;;;;;47.20;21.95;;;-6.30;99.90;;;;;;4230345;28;20027;-61
2024/01/31 03:12:22;;;;;;;49.60;23.15;;;-6.20;99.90;;;;;;4229322;27;20039;-61
2024/01/31 03:14:23;;;;;;;44.97;20.65;;;-6.20;99.90;;;;;;4230575;27;20039;-62
2024/01/31 03:16:25;;;;;;;47.40;22.23;;;-6.20;99.90;;;;;;4229253;27;20101;-62
2024/01/31 03:18:26;;;;;;;47.67;21.15;;;-6.20;99.90;;;;;;4229874;28;20441;-60
2024/01/31 03:20:27;;;;;;;49.05;21.23;;;-6.10;99.90;;;;;;4228754;28;20404;-60
2024/01/31 03:22:28;;;;;;;42.72;19.65;;;-6.20;99.90;;;;;;4229560;28;20487;-61
2024/01/31 03:24:29;;;;;;;43.55;19.25;;;-6.20;99.90;;;;;;4229366;28;20019;-61
2024/01/31 03:26:31;;;;;;;46.80;21.77;;;-6.40;99.90;;;;;;4228798;28;20108;-60
2024/01/31 03:28:32;;;;;;;48.45;22.75;;;-6.50;99.90;;;;;;4229462;28;20081;-61
2024/01/31 03:30:33;;;;;;;49.50;23.05;;;-6.60;99.90;;;;;;4228972;28;20068;-62
2024/01/31 03:32:35;;;;;;;54.80;24.15;;;-6.50;99.90;;;;;;4229845;27;20092;-58
2024/01/31 03:34:36;;;;;;;51.83;25.23;;;-6.60;99.90;;;;;;4228876;28;20523;-61
2024/01/31 03:36:37;;;;;;;64.30;26.95;;;-6.60;99.90;;;;;;4229567;28;20040;-59
2024/01/31 03:38:39;;;;;;;62.03;26.05;;;-6.60;99.90;;;;;;4229357;27;20108;-61
2024/01/31 03:40:40;;;;;;;58.58;25.70;;;-6.60;99.90;;;;;;4229706;28;20434;-61
2024/01/31 03:42:41;;;;;;;74.18;28.17;;;-6.60;99.90;;;;;;4228629;28;20472;-60
2024/01/31 03:44:43;;;;;;;63.05;25.75;;;-6.60;99.90;;;;;;4229715;28;20015;-60
2024/01/31 03:46:44;;;;;;;63.35;26.35;;;-6.60;99.90;;;;;;4228544;28;20027;-58
2024/01/31 03:48:45;;;;;;;56.67;24.88;;;-6.50;99.90;;;;;;4229448;28;20491;-61
2024/01/31 03:50:46;;;;;;;55.10;25.27;;;-6.50;99.90;;;;;;4228414;28;20487;-60
2024/01/31 03:52:47;;;;;;;83.05;35.88;;;-6.50;99.90;;;;;;4229525;28;20027;-61
2024/01/31 03:54:48;;;;;;;57.65;25.55;;;-6.50;99.90;;;;;;4228852;28;20081;-60
2024/01/31 03:56:49;;;;;;;56.50;24.83;;;-6.50;99.90;;;;;;4229055;28;20076;-60
2024/01/31 03:58:50;;;;;;;54.97;23.92;;;-6.50;99.90;;;;;;4229059;28;20116;-61
2024/01/31 04:00:52;;;;;;;50.42;24.15;;;-6.50;99.90;;;;;;4228632;28;20028;-61
2024/01/31 04:02:53;;;;;;;53.08;24.67;;;-6.60;99.90;;;;;;4229046;28;20031;-61
2024/01/31 04:04:54;;;;;;;53.17;25.38;;;-6.60;99.90;;;;;;4228373;28;20027;-61
2024/01/31 04:06:55;;;;;;;56.35;25.17;;;-6.60;99.90;;;;;;4229432;28;20057;-61
2024/01/31 04:08:56;;;;;;;57.03;23.08;;;-6.70;99.90;;;;;;4228580;28;20496;-61
2024/01/31 04:10:58;;;;;;;60.05;25.83;;;-6.70;99.90;;;;;;4229029;28;20040;-57
2024/01/31 04:12:59;;;;;;;56.65;26.23;;;-6.60;99.90;;;;;;4227668;28;20032;-60
2024/01/31 04:15:00;;;;;;;73.32;30.05;;;-6.60;99.90;;;;;;4229209;27;20050;-59
2024/01/31 04:17:01;;;;;;;57.88;25.55;;;-6.60;99.90;;;;;;4227953;28;20040;-61
2024/01/31 04:19:02;;;;;;;62.38;27.00;;;-6.60;99.90;;;;;;4228896;28;20031;-57
2024/01/31 04:21:04;;;;;;;61.13;28.15;;;-6.60;99.90;;;;;;4227989;27;20564;-60
2024/01/31 04:23:06;;;;;;;59.75;26.50;;;-6.70;99.90;;;;;;4228993;28;20027;-61
2024/01/31 04:25:07;;;;;;;58.33;26.45;;;-6.70;99.90;;;;;;4227933;28;20108;-61
2024/01/31 04:27:09;;;;;;;57.55;25.73;;;-6.70;99.90;;;;;;4224203;27;20036;-61
2024/01/31 04:29:12;;;;;;;55.08;27.25;;;-6.70;99.90;;;;;;4219836;28;20044;-60
2024/01/31 04:31:17;;;;;;;54.90;25.75;;;-6.70;99.90;;;;;;4215269;28;20027;-61
2024/01/31 04:33:20;;;;;;;57.83;24.65;;;-6.70;99.90;;;;;;4228603;28;20039;-59
2024/01/31 04:35:21;;;;;;;49.67;23.98;;;-6.80;99.90;;;;;;4227949;28;20035;-59
2024/01/31 04:37:22;;;;;;;58.75;24.92;;;-6.80;99.90;;;;;;4228859;28;20665;-60
2024/01/31 04:39:23;;;;;;;54.78;23.95;;;-6.80;99.90;;;;;;4228196;28;20024;-61
2024/01/31 04:41:24;;;;;;;62.53;25.48;;;-6.80;99.90;;;;;;4228809;28;20376;-60
2024/01/31 04:43:25;;;;;;;49.58;24.90;;;-6.80;99.90;;;;;;4227611;27;20529;-60
2024/01/31 04:45:26;;;;;;;57.05;25.30;;;-6.80;99.90;;;;;;4228827;28;20445;-61
2024/01/31 04:47:28;;;;;;;55.03;25.40;;;-6.80;99.90;;;;;;4227893;27;20052;-61
2024/01/31 04:49:29;;;;;;;54.15;26.52;;;-6.80;99.90;;;;;;4227500;27;20495;-60
2024/01/31 04:51:30;;;;;;;58.13;26.27;;;-6.80;99.90;;;;;;4227332;28;20736;-60
2024/01/31 04:53:31;;;;;;;63.03;29.60;;;-6.80;99.90;;;;;;4228563;28;20437;-61
2024/01/31 04:55:32;;;;;;;62.85;28.50;;;-6.80;99.90;;;;;;4227197;27;20039;-59
2024/01/31 04:57:34;;;;;;;62.75;26.60;;;-6.80;99.90;;;;;;4228467;28;20036;-60
2024/01/31 04:59:38;;;;;;;57.65;26.77;;;-6.80;99.90;;;;;;4227800;28;20085;-62
2024/01/31 05:01:39;;;;;;;64.18;27.25;;;-6.90;99.90;;;;;;4228217;28;20044;-61
2024/01/31 05:03:41;;;;;;;62.10;27.08;;;-6.80;99.90;;;;;;4227453;28;20081;-62
2024/01/31 05:05:42;;;;;;;61.45;25.30;;;-6.90;99.90;;;;;;4227595;28;20074;-61
2024/01/31 05:07:43;;;;;;;62.50;25.85;;;-6.90;99.90;;;;;;4228268;27;20035;-61
2024/01/31 05:09:44;;;;;;;61.55;26.30;;;-7.00;99.90;;;;;;4226929;28;20047;-60
2024/01/31 05:11:48;;;;;;;60.13;26.30;;;-7.00;99.90;;;;;;4228139;28;20028;-61
2024/01/31 05:13:49;;;;;;;59.20;26.42;;;-7.00;99.90;;;;;;4226544;27;20048;-60
2024/01/31 05:15:51;;;;;;;67.18;28.25;;;-7.00;99.90;;;;;;4226998;28;20040;-59
2024/01/31 05:17:52;;;;;;;67.88;30.10;;;-7.00;99.90;;;;;;4226893;28;20035;-60
2024/01/31 05:19:53;;;;;;;61.47;27.95;;;-7.00;99.90;;;;;;4228025;28;20027;-59
2024/01/31 05:21:55;;;;;;;58.72;27.75;;;-7.00;99.90;;;;;;4226696;28;20108;-60
2024/01/31 05:23:56;;;;;;;65.05;28.48;;;-6.90;99.90;;;;;;4228005;28;20036;-58
2024/01/31 05:25:57;;;;;;;65.78;27.75;;;-6.90;99.90;;;;;;4226937;28;20104;-58
2024/01/31 05:27:58;;;;;;;62.17;28.30;;;-6.90;99.90;;;;;;4225591;28;20069;-59
2024/01/31 05:30:00;;;;;;;62.60;28.42;;;-6.80;99.90;;;;;;4226608;28;20040;-59
2024/01/31 05:32:01;;;;;;;65.35;29.17;;;-6.80;99.90;;;;;;4227899;28;20100;-57
2024/01/31 05:34:02;;;;;;;73.38;31.10;;;-6.80;99.90;;;;;;4227155;28;20108;-60
2024/01/31 05:36:03;;;;;;;64.28;29.63;;;-6.80;99.90;;;;;;4228206;28;20028;-61
2024/01/31 05:38:05;;;;;;;60.58;29.00;;;-6.80;99.90;;;;;;4227215;28;20028;-60
2024/01/31 05:40:08;;;;;;;63.47;30.15;;;-6.80;99.90;;;;;;4227283;28;20039;-61
2024/01/31 05:42:09;;;;;;;68.05;29.63;;;-6.90;99.90;;;;;;4227635;28;20039;-59
2024/01/31 05:44:10;;;;;;;65.05;31.92;;;-6.80;99.90;;;;;;4223776;28;20032;-61
2024/01/31 05:46:16;;;;;;;65.40;30.30;;;-6.80;99.90;;;;;;4211276;28;20465;-60
2024/01/31 05:48:18;;;;;;;63.72;30.30;;;-6.80;99.90;;;;;;4225379;28;20069;-61
2024/01/31 05:50:19;;;;;;;73.32;31.35;;;-6.80;99.90;;;;;;4218316;28;20051;-59
2024/01/31 05:52:20;;;;;;;63.28;30.17;;;-6.90;99.90;;;;;;4221162;28;20525;-60
2024/01/31 05:54:21;;;;;;;68.93;34.35;;;-6.90;99.90;;;;;;4227906;28;20104;-60
2024/01/31 05:56:23;;;;;;;74.97;34.22;;;-6.90;99.90;;;;;;4226831;28;20027;-60
2024/01/31 05:58:24;;;;;;;74.72;36.00;;;-6.90;99.90;;;;;;4227978;28;20039;-60
2024/01/31 06:00:25;;;;;;;82.07;39.17;;;-6.90;99.90;;;;;;4226365;28;20097;-60
2024/01/31 06:02:26;;;;;;;74.13;35.88;;;-6.90;99.90;;;;;;4227508;28;20434;-61
2024/01/31 06:04:27;;;;;;;78.90;38.33;;;-6.90;99.90;;;;;;4225336;28;20043;-60
2024/01/31 06:06:28;;;;;;;76.68;37.60;;;-6.80;99.90;;;;;;4227327;28;20876;-60
2024/01/31 06:08:30;;;;;;;71.28;35.03;;;-6.70;99.90;;;;;;4227391;28;20080;-54
2024/01/31 06:10:31;;;;;;;75.10;35.33;;;-6.60;99.90;;;;;;4227094;28;20040;-61
2024/01/31 06:12:32;;;;;;;77.95;36.22;;;-6.50;99.90;;;;;;4226711;28;20076;-60
2024/01/31 06:14:36;;;;;;;76.07;36.50;;;-6.30;99.90;;;;;;4226724;28;20032;-60
2024/01/31 06:16:37;;;;;;;69.70;34.90;;;-6.20;99.90;;;;;;4227934;28;20044;-60
2024/01/31 06:18:38;;;;;;;77.78;37.47;;;-6.00;99.90;;;;;;4226459;28;20023;-61
2024/01/31 06:20:40;;;;;;;81.85;36.15;;;-5.90;99.90;;;;;;4227547;28;20049;-60
2024/01/31 06:22:41;;;;;;;75.55;32.90;;;-5.80;99.90;;;;;;4226630;28;20040;-61
2024/01/31 06:24:43;;;;;;;76.03;32.60;;;-5.70;99.90;;;;;;4227717;28;20077;-61
2024/01/31 06:26:44;;;;;;;69.00;32.67;;;-5.50;99.90;;;;;;4226748;28;20052;-61
2024/01/31 06:28:48;;;;;;;62.17;31.85;;;-5.30;99.90;;;;;;4227444;28;20088;-61
2024/01/31 06:30:58;;;;;;;68.85;30.63;;;-5.20;99.90;;;;;;4226368;28;20035;-61
2024/01/31 06:33:07;;;;;;;62.97;30.48;;;-5.20;99.90;;;;;;4227532;28;20028;-60
2024/01/31 06:35:09;;;;;;;68.63;33.05;;;-5.20;99.90;;;;;;4226366;28;20072;-61
2024/01/31 06:37:10;;;;;;;74.25;31.10;;;-5.10;99.90;;;;;;4227673;28;20027;-61
2024/01/31 06:39:11;;;;;;;65.82;31.42;;;-5.00;99.90;;;;;;4227997;28;20172;-61
2024/01/31 06:41:16;;;;;;;61.60;31.25;;;-4.90;99.90;;;;;;4230666;27;20039;-61
2024/01/31 06:43:18;;;;;;;65.70;32.42;;;-4.80;99.90;;;;;;4229433;28;20433;-61
2024/01/31 06:45:20;;;;;;;68.45;33.75;;;-4.70;99.90;;;;;;4230036;27;20027;-59
2024/01/31 06:47:21;;;;;;;66.67;33.57;;;-4.60;99.90;;;;;;4230049;27;20036;-61
2024/01/31 06:49:24;;;;;;;66.37;32.70;;;-4.50;99.90;;;;;;4229752;28;20252;-60
2024/01/31 06:51:25;;;;;;;77.47;33.07;;;-4.40;99.90;;;;;;4230071;27;20384;-60
2024/01/31 06:53:29;;;;;;;88.90;39.63;;;-4.40;99.90;;;;;;4229867;27;20711;-61
2024/01/31 06:55:30;;;;;;;86.33;37.27;;;-4.20;99.90;;;;;;4230318;28;20244;-60
2024/01/31 06:57:33;;;;;;;88.03;38.30;;;-4.00;99.90;;;;;;4229355;28;20264;-62
2024/01/31 06:59:34;;;;;;;69.77;32.07;;;-3.90;99.90;;;;;;4230238;28;20260;-60
2024/01/31 07:01:35;;;;;;;70.23;31.63;;;-3.70;99.90;;;;;;4229202;28;20309;-62
2024/01/31 07:03:36;;;;;;;69.10;29.90;;;-3.60;99.90;;;;;;4228744;28;20264;-61
2024/01/31 07:05:37;;;;;;;75.60;33.17;;;-3.30;99.90;;;;;;4229181;28;20626;-61
2024/01/31 07:07:39;;;;;;;65.00;31.97;;;-3.20;99.90;;;;;;4230271;28;20329;-61
2024/01/31 07:09:40;;;;;;;70.20;32.60;;;-2.90;99.90;;;;;;4229197;27;20373;-61
2024/01/31 07:11:41;;;;;;;60.43;28.63;;;-2.70;99.90;;;;;;4230311;28;20268;-61
2024/01/31 07:13:42;;;;;;;76.07;34.53;;;-2.60;99.90;;;;;;4228913;27;20284;-61
2024/01/31 07:15:43;;;;;;;77.23;34.10;;;-2.40;99.90;;;;;;4229945;28;20674;-61
2024/01/31 07:17:44;;;;;;;72.67;33.83;;;-2.30;99.90;;;;;;4229313;27;20728;-61
2024/01/31 07:19:46;;;;;;;76.20;35.17;;;-2.10;99.90;;;;;;4229738;28;20677;-61
2024/01/31 07:21:47;;;;;;;76.40;35.20;;;-1.90;99.90;;;;;;4229140;28;20268;-60
2024/01/31 07:23:48;;;;;;;69.33;32.07;;;-1.80;99.90;;;;;;4229283;28;20286;-60
2024/01/31 07:25:49;;;;;;;64.33;30.77;;;-1.70;99.90;;;;;;4229627;28;20716;-61
2024/01/31 07:27:50;;;;;;;64.20;32.93;;;-1.70;99.90;;;;;;4228762;28;20260;-61
2024/01/31 07:29:51;;;;;;;62.60;34.63;;;-1.60;99.90;;;;;;4229540;28;20828;-60
2024/01/31 07:31:53;;;;;;;61.73;32.87;;;-1.60;99.90;;;;;;4228475;28;20252;-61
2024/01/31 07:33:54;;;;;;;58.40;29.50;;;-1.50;99.90;;;;;;4229698;28;20313;-58
2024/01/31 07:35:56;;;;;;;59.20;31.80;;;-1.40;99.90;;;;;;4228495;28;20264;-61
2024/01/31 07:37:57;;;;;;;63.67;32.07;;;-1.40;99.90;;;;;;4229961;27;20300;-61
2024/01/31 07:39:58;;;;;;;62.27;31.77;;;-1.30;99.90;;;;;;4228875;28;20268;-60
2024/01/31 07:41:59;;;;;;;70.03;32.70;;;-1.20;99.90;;;;;;4229380;28;21106;-61
2024/01/31 07:44:00;;;;;;;73.80;36.17;;;-1.10;99.90;;;;;;4227053;28;20740;-59
2024/01/31 07:46:03;;;;;;;65.23;31.63;;;-1.00;99.90;;;;;;4229730;28;20276;-61
2024/01/31 07:48:05;;;;;;;61.70;33.57;;;-0.90;99.90;;;;;;4228319;28;20260;-61
2024/01/31 07:50:07;;;;;;;59.40;29.73;;;-0.50;99.90;;;;;;4229095;28;20275;-61
2024/01/31 07:52:08;;;;;;;64.23;31.90;;;0.00;99.90;;;;;;4228576;28;20720;-62
2024/01/31 07:54:10;;;;;;;60.70;33.53;;;0.10;99.90;;;;;;4229073;27;20325;-58
2024/01/31 07:56:11;;;;;;;62.90;34.07;;;0.20;99.90;;;;;;4229153;27;20264;-62
2024/01/31 07:58:12;;;;;;;59.47;32.13;;;0.30;99.90;;;;;;4228312;28;20756;-62
2024/01/31 08:00:14;;;;;;;64.43;32.10;;;0.20;99.90;;;;;;4229434;28;20337;-61
2024/01/31 08:02:15;;;;;;;63.90;34.07;;;0.20;99.90;;;;;;4228292;28;20352;-60
2024/01/31 08:04:16;;;;;;;65.83;34.37;;;0.40;99.90;;;;;;4229204;28;20268;-60
2024/01/31 08:06:17;;;;;;;63.57;34.40;;;0.40;99.90;;;;;;4228112;28;20264;-58
2024/01/31 08:08:18;;;;;;;64.33;32.70;;;0.50;99.90;;;;;;4229414;27;20272;-61
2024/01/31 08:10:20;;;;;;;62.60;32.83;;;0.60;99.90;;;;;;4228458;28;20288;-61
2024/01/31 08:12:21;;;;;;;58.70;32.00;;;0.80;99.90;;;;;;4229121;27;20277;-60
2024/01/31 08:14:22;;;;;;;61.13;31.57;;;0.70;99.90;;;;;;4226445;28;20288;-60
2024/01/31 08:16:23;;;;;;;54.57;28.13;;;0.70;99.90;;;;;;4229163;28;20808;-61
2024/01/31 08:18:26;;;;;;;56.37;28.53;;;0.40;99.90;;;;;;4228074;28;20268;-61
2024/01/31 08:20:27;;;;;;;58.80;30.60;;;-0.10;99.90;;;;;;4229040;28;20264;-59
2024/01/31 08:22:28;;;;;;;55.77;30.27;;;-0.30;99.90;;;;;;4226594;27;20279;-61
2024/01/31 08:24:30;;;;;;;56.27;30.20;;;-0.70;99.90;;;;;;4228813;27;20678;-59
2024/01/31 08:26:31;;;;;;;58.83;30.40;;;-0.70;99.90;;;;;;4228675;27;20932;-60
2024/01/31 08:28:32;;;;;;;55.70;30.00;;;-0.70;99.90;;;;;;4228285;27;20280;-60
2024/01/31 08:30:33;;;;;;;54.67;30.00;;;-0.90;99.90;;;;;;4228425;28;20309;-61
2024/01/31 08:32:34;;;;;;;52.27;26.93;;;-0.60;99.90;;;;;;4227666;28;20946;-59
2024/01/31 08:34:35;;;;;;;52.37;26.17;;;-0.40;99.90;;;;;;4228771;28;20313;-60
2024/01/31 08:36:37;;;;;;;55.40;29.70;;;-0.50;99.90;;;;;;4227952;27;20349;-61
2024/01/31 08:38:40;;;;;;;51.47;28.57;;;-0.50;99.90;;;;;;4228743;28;20256;-60
2024/01/31 08:40:41;;;;;;;54.50;29.63;;;-0.40;99.90;;;;;;4227808;28;20268;-60
2024/01/31 08:42:42;;;;;;;58.60;28.63;;;-0.20;99.90;;;;;;4228602;28;20252;-61
2024/01/31 08:44:44;;;;;;;52.40;26.80;;;-0.20;99.90;;;;;;4227390;28;20631;-60
2024/01/31 08:46:45;;;;;;;47.00;24.07;;;-0.10;99.90;;;;;;4228644;28;20264;-60
2024/01/31 08:48:46;;;;;;;45.57;23.87;;;-0.10;99.90;;;;;;4227516;28;20313;-60
2024/01/31 08:50:48;;;;;;;42.70;22.13;;;-0.50;99.90;;;;;;4228417;28;20288;-60
2024/01/31 08:52:49;;;;;;;44.43;21.37;;;-0.60;99.90;;;;;;4227251;28;20272;-60
2024/01/31 08:54:50;;;;;;;47.40;22.60;;;-0.70;99.90;;;;;;4228406;28;20758;-60
2024/01/31 08:56:51;;;;;;;40.10;21.87;;;-0.60;99.90;;;;;;4227469;28;20332;-60
2024/01/31 08:58:53;;;;;;;47.57;22.67;;;-0.80;99.90;;;;;;4227713;28;20272;-60
2024/01/31 09:00:54;;;;;;;45.30;23.93;;;-1.00;99.90;;;;;;4227707;28;20325;-61
2024/01/31 09:02:56;;;;;;;41.53;21.03;;;-1.10;99.90;;;;;;4226780;28;20288;-57
2024/01/31 09:04:59;;;;;;;44.00;22.27;;;-0.90;99.90;;;;;;4228265;27;20670;-60
2024/01/31 09:07:00;;;;;;;40.30;23.63;;;-0.80;99.90;;;;;;4227139;28;20301;-60
2024/01/31 09:09:03;;;;;;;40.77;21.73;;;-0.60;99.90;;;;;;4228677;28;20329;-61
2024/01/31 09:11:05;;;;;;;43.43;21.80;;;-0.60;99.90;;;;;;4227432;28;20369;-60
2024/01/31 09:13:06;;;;;;;43.37;23.97;;;-0.80;99.90;;;;;;4228121;28;20801;-60
2024/01/31 09:15:09;;;;;;;43.03;22.97;;;-0.90;99.90;;;;;;4226891;28;20662;-59
2024/01/31 09:17:10;;;;;;;42.13;22.87;;;-0.50;99.90;;;;;;4228153;28;20710;-56
2024/01/31 09:19:11;;;;;;;41.07;23.27;;;-0.60;99.90;;;;;;4227088;28;20284;-60
2024/01/31 09:21:23;;;;;;;38.50;22.27;;;-0.70;99.90;;;;;;4228035;27;20736;-56
2024/01/31 09:23:24;;;;;;;48.97;23.87;;;-0.70;99.90;;;;;;4227090;28;20329;-60
2024/01/31 09:25:26;;;;;;;43.97;21.37;;;-0.60;99.90;;;;;;4228120;28;20260;-61
2024/01/31 09:27:27;;;;;;;45.83;24.27;;;-0.60;99.90;;;;;;4226863;28;20313;-61
2024/01/31 09:29:28;;;;;;;46.83;24.80;;;-0.60;99.90;;;;;;4228183;28;20288;-57
2024/01/31 09:31:29;;;;;;;46.20;25.10;;;-0.40;99.90;;;;;;4227023;28;20341;-60
2024/01/31 09:33:31;;;;;;;45.37;24.50;;;-0.40;99.90;;;;;;4227695;28;20256;-61
2024/01/31 09:35:32;;;;;;;47.23;26.80;;;-0.30;99.90;;;;;;4227085;28;20248;-60
2024/01/31 09:37:33;;;;;;;45.73;24.63;;;-0.40;99.90;;;;;;4227180;28;20317;-60
2024/01/31 09:39:34;;;;;;;45.83;25.47;;;-0.30;99.90;;;;;;4227781;28;20256;-61
2024/01/31 09:41:36;;;;;;;50.80;26.60;;;-0.20;99.90;;;;;;4227038;28;20650;-61
2024/01/31 09:43:37;;;;;;;44.80;25.73;;;-0.30;99.90;;;;;;4227698;28;20647;-58
2024/01/31 09:45:40;;;;;;;48.53;25.93;;;-0.50;99.90;;;;;;4226749;28;20256;-59
2024/01/31 09:47:45;;;;;;;46.83;26.00;;;-0.50;99.90;;;;;;4227895;28;20643;-60
2024/01/31 09:49:46;;;;;;;51.40;25.20;;;-0.50;99.90;;;;;;4226978;28;20723;-59
2024/01/31 09:51:48;;;;;;;47.37;25.87;;;-0.50;99.90;;;;;;4228162;28;20444;-60
2024/01/31 09:53:54;;;;;;;55.07;26.13;;;-0.50;99.90;;;;;;4226666;28;20272;-60
2024/01/31 09:55:56;;;;;;;52.87;26.70;;;-0.40;99.90;;;;;;4227964;28;20290;-62
2024/01/31 09:57:57;;;;;;;52.50;27.63;;;-0.30;99.90;;;;;;4225271;28;20368;-57
2024/01/31 10:00:00;;;;;;;49.87;26.27;;;-0.30;99.90;;;;;;4228140;28;20284;-61
2024/01/31 10:02:02;;;;;;;51.83;26.13;;;-0.20;99.90;;;;;;4226875;28;20765;-59
2024/01/31 10:04:04;;;;;;;49.87;26.57;;;-0.20;99.90;;;;;;4227792;28;20272;-57
2024/01/31 10:06:05;;;;;;;51.80;27.73;;;-0.20;99.90;;;;;;4226734;28;20670;-61
2024/01/31 10:08:06;;;;;;;52.47;27.27;;;-0.20;99.90;;;;;;4227404;28;20268;-59
2024/01/31 10:10:09;;;;;;;46.67;25.37;;;-0.30;99.90;;;;;;4227443;28;20317;-61
2024/01/31 10:12:11;;;;;;;50.70;27.17;;;-0.30;99.90;;;;;;4227074;28;20264;-61
2024/01/31 10:14:13;;;;;;;51.17;26.50;;;-0.30;99.90;;;;;;4228417;28;20264;-60
2024/01/31 10:16:15;;;;;;;48.53;25.63;;;-0.30;99.90;;;;;;4228720;28;20297;-60
2024/01/31 10:18:17;;;;;;;58.60;27.37;;;-0.20;99.90;;;;;;4230614;28;20325;-60